createdAt,value
2023-06-19T00:00:58.314Z,485.00
2023-06-19T00:01:58.300Z,486.00
2023-06-19T00:02:58.462Z,487.00
2023-06-19T00:03:58.547Z,482.00
2023-06-19T00:04:58.516Z,482.00
2023-06-19T00:05:58.611Z,483.00
2023-06-19T00:06:58.753Z,485.00
2023-06-19T00:07:58.778Z,486.00
2023-06-19T00:08:58.866Z,483.00
2023-06-19T00:09:58.976Z,482.00
2023-06-19T00:10:58.997Z,481.00
2023-06-19T00:11:59.109Z,481.00
2023-06-19T00:12:59.188Z,481.00
2023-06-19T00:13:59.842Z,481.00
2023-06-19T00:14:59.401Z,481.00
2023-06-19T00:15:59.485Z,482.00
2023-06-19T00:16:59.549Z,479.00
2023-06-19T00:17:59.827Z,479.00
2023-06-19T00:18:59.696Z,480.00
2023-06-19T00:19:59.849Z,479.00
2023-06-19T00:20:59.921Z,479.00
2023-06-19T00:21:59.980Z,479.00
2023-06-19T00:23:00.049Z,478.00
2023-06-19T00:24:00.140Z,480.00
2023-06-19T00:25:00.277Z,481.00
2023-06-19T00:26:00.275Z,483.00
2023-06-19T00:27:00.360Z,483.00
2023-06-19T00:28:00.446Z,485.00
2023-06-19T00:29:00.506Z,484.00
2023-06-19T00:30:00.577Z,484.00
2023-06-19T00:31:01.332Z,485.00
2023-06-19T00:32:00.855Z,482.00
2023-06-19T00:33:00.931Z,478.00
2023-06-19T00:34:00.999Z,478.00
2023-06-19T00:35:01.107Z,474.00
2023-06-19T00:36:01.180Z,474.00
2023-06-19T00:37:01.292Z,474.00
2023-06-19T00:38:01.366Z,476.00
2023-06-19T00:39:01.467Z,474.00
2023-06-19T00:40:01.555Z,478.00
2023-06-19T00:41:01.622Z,477.00
2023-06-19T00:42:01.841Z,476.00
2023-06-19T00:43:01.860Z,479.00
2023-06-19T00:44:01.952Z,479.00
2023-06-19T00:45:02.042Z,483.00
2023-06-19T00:46:02.195Z,485.00
2023-06-19T00:47:02.230Z,484.00
2023-06-19T00:48:02.466Z,481.00
2023-06-19T00:49:02.401Z,479.00
2023-06-19T00:50:02.526Z,478.00
2023-06-19T00:51:02.600Z,483.00
2023-06-19T00:52:02.696Z,482.00
2023-06-19T00:53:02.796Z,482.00
2023-06-19T00:54:02.892Z,485.00
2023-06-19T00:55:02.993Z,488.00
2023-06-19T00:56:03.095Z,482.00
2023-06-19T00:57:03.204Z,484.00
2023-06-19T00:58:03.424Z,480.00
2023-06-19T00:59:03.402Z,481.00
2023-06-19T01:00:03.504Z,483.00
2023-06-19T01:01:08.693Z,484.00
2023-06-19T01:02:04.704Z,483.00
2023-06-19T01:03:03.766Z,483.00
2023-06-19T01:04:03.932Z,486.00
2023-06-19T01:05:03.851Z,486.00
2023-06-19T01:06:03.910Z,484.00
2023-06-19T01:07:03.963Z,485.00
2023-06-19T01:08:04.047Z,485.00
2023-06-19T01:09:04.075Z,485.00
2023-06-19T01:10:04.156Z,500.00
2023-06-19T01:11:11.814Z,485.00
2023-06-19T01:12:05.281Z,477.00
2023-06-19T01:13:04.344Z,472.00
2023-06-19T01:14:04.403Z,473.00
2023-06-19T01:15:04.479Z,475.00
2023-06-19T01:16:04.551Z,474.00
2023-06-19T01:17:04.652Z,472.00
2023-06-19T01:18:04.821Z,470.00
2023-06-19T01:19:04.765Z,466.00
2023-06-19T01:20:04.845Z,468.00
2023-06-19T01:21:04.914Z,468.00
2023-06-19T01:22:05.353Z,471.00
2023-06-19T01:23:05.070Z,474.00
2023-06-19T01:24:05.347Z,474.00
2023-06-19T01:25:05.315Z,474.00
2023-06-19T01:26:05.445Z,475.00
2023-06-19T01:27:05.551Z,474.00
2023-06-19T01:28:05.685Z,477.00
2023-06-19T01:29:05.849Z,478.00
2023-06-19T01:30:05.908Z,478.00
2023-06-19T01:31:06.022Z,480.00
2023-06-19T01:32:06.347Z,481.00
2023-06-19T01:33:06.353Z,483.00
2023-06-19T01:34:06.399Z,480.00
2023-06-19T01:35:06.533Z,478.00
2023-06-19T01:36:06.674Z,478.00
2023-06-19T01:37:06.807Z,479.00
2023-06-19T01:38:06.946Z,480.00
2023-06-19T01:39:07.078Z,480.00
2023-06-19T01:40:07.206Z,481.00
2023-06-19T01:41:07.321Z,483.00
2023-06-19T01:42:07.437Z,483.00
2023-06-19T01:43:07.560Z,483.00
2023-06-19T01:44:07.693Z,485.00
2023-06-19T01:45:07.834Z,488.00
2023-06-19T01:46:07.985Z,488.00
2023-06-19T01:47:08.051Z,485.00
2023-06-19T01:48:08.206Z,485.00
2023-06-19T01:49:08.299Z,486.00
2023-06-19T01:50:09.367Z,488.00
2023-06-19T01:51:08.616Z,488.00
2023-06-19T01:52:08.856Z,489.00
2023-06-19T01:53:08.769Z,491.00
2023-06-19T01:54:08.874Z,494.00
2023-06-19T01:55:08.981Z,493.00
2023-06-19T01:56:09.093Z,492.00
2023-06-19T01:57:09.214Z,489.00
2023-06-19T01:58:09.324Z,489.00
2023-06-19T01:59:09.439Z,488.00
2023-06-19T02:00:09.572Z,489.00
2023-06-19T02:01:09.679Z,490.00
2023-06-19T02:02:09.839Z,492.00
2023-06-19T02:03:10.049Z,490.00
2023-06-19T02:04:10.073Z,491.00
2023-06-19T02:05:10.193Z,489.00
2023-06-19T02:06:10.319Z,489.00
2023-06-19T02:07:10.471Z,490.00
2023-06-19T02:08:10.585Z,489.00
2023-06-19T02:09:11.365Z,490.00
2023-06-19T02:10:10.910Z,490.00
2023-06-19T02:11:10.980Z,490.00
2023-06-19T02:12:11.117Z,493.00
2023-06-19T02:13:11.257Z,492.00
2023-06-19T02:14:11.374Z,489.00
2023-06-19T02:15:11.581Z,489.00
2023-06-19T02:16:11.673Z,487.00
2023-06-19T02:17:11.769Z,483.00
2023-06-19T02:18:11.885Z,490.00
2023-06-19T02:19:12.034Z,494.00
2023-06-19T02:20:12.192Z,489.00
2023-06-19T02:21:12.331Z,490.00
2023-06-19T02:22:12.477Z,489.00
2023-06-19T02:23:12.628Z,489.00
2023-06-19T02:24:12.784Z,489.00
2023-06-19T02:25:12.905Z,491.00
2023-06-19T02:26:13.042Z,494.00
2023-06-19T02:27:13.186Z,492.00
2023-06-19T02:28:13.330Z,494.00
2023-06-19T02:29:13.516Z,491.00
2023-06-19T02:30:13.609Z,490.00
2023-06-19T02:31:13.740Z,488.00
2023-06-19T02:32:13.879Z,487.00
2023-06-19T02:33:14.000Z,487.00
2023-06-19T02:34:14.134Z,487.00
2023-06-19T02:35:14.260Z,487.00
2023-06-19T02:36:14.385Z,487.00
2023-06-19T02:37:14.531Z,481.00
2023-06-19T02:38:14.655Z,483.00
2023-06-19T02:39:14.848Z,487.00
2023-06-19T02:40:14.945Z,472.00
2023-06-19T02:41:15.068Z,481.00
2023-06-19T02:42:15.208Z,480.00
2023-06-19T02:43:15.331Z,477.00
2023-06-19T02:44:15.453Z,475.00
2023-06-19T02:45:15.581Z,476.00
2023-06-19T02:46:15.739Z,477.00
2023-06-19T02:47:15.813Z,477.00
2023-06-19T02:48:15.926Z,479.00
2023-06-19T02:49:16.044Z,474.00
2023-06-19T02:50:16.154Z,476.00
2023-06-19T02:51:16.250Z,470.00
2023-06-19T02:52:16.356Z,470.00
2023-06-19T02:53:16.454Z,467.00
2023-06-19T02:54:16.549Z,471.00
2023-06-19T02:55:16.671Z,472.00
2023-06-19T02:56:16.782Z,472.00
2023-06-19T02:57:16.904Z,469.00
2023-06-19T02:58:17.025Z,471.00
2023-06-19T02:59:17.156Z,474.00
2023-06-19T03:00:17.279Z,472.00
2023-06-19T03:01:17.445Z,473.00
2023-06-19T03:02:17.476Z,476.00
2023-06-19T03:03:17.680Z,475.00
2023-06-19T03:04:17.697Z,469.00
2023-06-19T03:05:17.761Z,477.00
2023-06-19T03:06:17.888Z,475.00
2023-06-19T03:07:18.082Z,474.00
2023-06-19T03:08:18.210Z,474.00
2023-06-19T03:09:18.342Z,474.00
2023-06-19T03:10:18.473Z,476.00
2023-06-19T03:11:18.622Z,479.00
2023-06-19T03:12:18.724Z,475.00
2023-06-19T03:13:18.860Z,473.00
2023-06-19T03:14:19.030Z,477.00
2023-06-19T03:15:19.056Z,482.00
2023-06-19T03:16:19.189Z,478.00
2023-06-19T03:17:19.382Z,474.00
2023-06-19T03:18:19.381Z,480.00
2023-06-19T03:19:19.482Z,461.00
2023-06-19T03:20:19.564Z,464.00
2023-06-19T03:21:20.394Z,479.00
2023-06-19T03:22:19.783Z,475.00
2023-06-19T03:23:20.378Z,477.00
2023-06-19T03:24:20.012Z,472.00
2023-06-19T03:25:20.137Z,477.00
2023-06-19T03:26:20.270Z,481.00
2023-06-19T03:27:20.391Z,483.00
2023-06-19T03:28:20.553Z,472.00
2023-06-19T03:29:20.725Z,484.00
2023-06-19T03:30:20.935Z,467.00
2023-06-19T03:31:21.079Z,481.00
2023-06-19T03:32:21.355Z,478.00
2023-06-19T03:33:21.417Z,478.00
2023-06-19T03:34:21.587Z,475.00
2023-06-19T03:35:21.775Z,475.00
2023-06-19T03:36:21.934Z,474.00
2023-06-19T03:37:22.066Z,473.00
2023-06-19T03:38:22.206Z,477.00
2023-06-19T03:39:22.363Z,476.00
2023-06-19T03:40:22.868Z,477.00
2023-06-19T03:41:22.714Z,485.00
2023-06-19T03:42:22.865Z,481.00
2023-06-19T03:43:23.030Z,481.00
2023-06-19T03:44:23.191Z,478.00
2023-06-19T03:45:23.312Z,476.00
2023-06-19T03:46:23.518Z,477.00
2023-06-19T03:47:23.636Z,482.00
2023-06-19T03:48:23.774Z,478.00
2023-06-19T03:49:23.902Z,479.00
2023-06-19T03:50:26.389Z,477.00
2023-06-19T03:51:24.135Z,479.00
2023-06-19T03:52:24.229Z,476.00
2023-06-19T03:53:24.319Z,480.00
2023-06-19T03:54:24.403Z,472.00
2023-06-19T03:55:24.512Z,474.00
2023-06-19T03:56:24.590Z,472.00
2023-06-19T03:57:24.692Z,474.00
2023-06-19T03:58:24.782Z,477.00
2023-06-19T03:59:24.883Z,479.00
2023-06-19T04:00:25.250Z,475.00
2023-06-19T04:01:25.088Z,474.00
2023-06-19T04:02:25.175Z,478.00
2023-06-19T04:03:25.301Z,474.00
2023-06-19T04:04:25.374Z,474.00
2023-06-19T04:05:25.439Z,481.00
2023-06-19T04:06:25.562Z,480.00
2023-06-19T04:07:25.643Z,480.00
2023-06-19T04:08:25.728Z,477.00
2023-06-19T04:09:25.835Z,471.00
2023-06-19T04:10:26.270Z,481.00
2023-06-19T04:11:26.034Z,481.00
2023-06-19T04:12:26.131Z,483.00
2023-06-19T04:13:26.289Z,476.00
2023-06-19T04:14:26.338Z,477.00
2023-06-19T04:15:26.481Z,472.00
2023-06-19T04:16:27.536Z,474.00
2023-06-19T04:17:26.696Z,485.00
2023-06-19T04:18:26.790Z,484.00
2023-06-19T04:19:27.914Z,479.00
2023-06-19T04:20:27.099Z,470.00
2023-06-19T04:21:27.128Z,466.00
2023-06-19T04:22:27.287Z,464.00
2023-06-19T04:23:27.290Z,460.00
2023-06-19T04:24:27.936Z,449.00
2023-06-19T04:25:27.469Z,458.00
2023-06-19T04:26:27.515Z,460.00
2023-06-19T04:27:27.586Z,464.00
2023-06-19T04:28:27.667Z,465.00
2023-06-19T04:29:27.745Z,476.00
2023-06-19T04:30:27.972Z,472.00
2023-06-19T04:31:27.938Z,479.00
2023-06-19T04:32:28.099Z,479.00
2023-06-19T04:33:29.122Z,475.00
2023-06-19T04:34:28.225Z,476.00
2023-06-19T04:35:28.316Z,472.00
2023-06-19T04:36:28.407Z,471.00
2023-06-19T04:37:28.485Z,473.00
2023-06-19T04:38:28.599Z,474.00
2023-06-19T04:39:28.624Z,473.00
2023-06-19T04:40:28.711Z,474.00
2023-06-19T04:41:28.798Z,475.00
2023-06-19T04:42:28.867Z,470.00
2023-06-19T04:43:30.417Z,480.00
2023-06-19T04:44:29.911Z,478.00
2023-06-19T04:45:29.103Z,478.00
2023-06-19T04:46:29.267Z,473.00
2023-06-19T04:47:39.784Z,480.00
2023-06-19T04:48:30.493Z,479.00
2023-06-19T04:49:29.426Z,479.00
2023-06-19T04:50:29.520Z,481.00
2023-06-19T04:51:29.616Z,484.00
2023-06-19T04:52:29.793Z,481.00
2023-06-19T04:53:29.801Z,482.00
2023-06-19T04:54:29.909Z,478.00
2023-06-19T04:55:29.994Z,474.00
2023-06-19T04:56:30.070Z,473.00
2023-06-19T04:57:30.183Z,477.00
2023-06-19T04:58:30.270Z,469.00
2023-06-19T04:59:30.365Z,466.00
2023-06-19T05:00:30.465Z,462.00
2023-06-19T05:01:30.572Z,450.00
2023-06-19T05:02:30.680Z,467.00
2023-06-19T05:03:30.764Z,464.00
2023-06-19T05:04:30.900Z,474.00
2023-06-19T05:05:30.966Z,452.00
2023-06-19T05:06:31.050Z,479.00
2023-06-19T05:07:31.159Z,476.00
2023-06-19T05:08:31.246Z,460.00
2023-06-19T05:09:31.917Z,465.00
2023-06-19T05:10:31.515Z,465.00
2023-06-19T05:11:31.632Z,451.00
2023-06-19T05:12:31.761Z,462.00
2023-06-19T05:13:31.896Z,459.00
2023-06-19T05:14:32.017Z,461.00
2023-06-19T05:15:32.145Z,457.00
2023-06-19T05:16:34.401Z,458.00
2023-06-19T05:17:32.409Z,459.00
2023-06-19T05:18:32.408Z,464.00
2023-06-19T05:19:32.467Z,474.00
2023-06-19T05:20:32.535Z,462.00
2023-06-19T05:21:32.608Z,461.00
2023-06-19T05:22:32.670Z,483.00
2023-06-19T05:23:32.724Z,463.00
2023-06-19T05:24:32.832Z,442.00
2023-06-19T05:25:32.851Z,472.00
2023-06-19T05:26:32.917Z,466.00
2023-06-19T05:27:32.976Z,459.00
2023-06-19T05:28:33.036Z,458.00
2023-06-19T05:29:33.083Z,453.00
2023-06-19T05:30:33.233Z,467.00
2023-06-19T05:31:33.203Z,469.00
2023-06-19T05:32:33.331Z,467.00
2023-06-19T05:33:33.310Z,464.00
2023-06-19T05:34:33.357Z,465.00
2023-06-19T05:35:33.419Z,460.00
2023-06-19T05:36:33.472Z,459.00
2023-06-19T05:37:33.507Z,454.00
2023-06-19T05:38:33.546Z,454.00
2023-06-19T05:39:33.585Z,441.00
2023-06-19T05:40:33.628Z,454.00
2023-06-19T05:41:33.692Z,452.00
2023-06-19T05:42:33.843Z,451.00
2023-06-19T05:43:34.948Z,449.00
2023-06-19T05:44:34.063Z,454.00
2023-06-19T05:45:34.147Z,455.00
2023-06-19T05:46:34.240Z,468.00
2023-06-19T05:47:34.363Z,463.00
2023-06-19T05:48:34.432Z,461.00
2023-06-19T05:49:34.531Z,457.00
2023-06-19T05:50:34.608Z,449.00
2023-06-19T05:51:34.683Z,452.00
2023-06-19T05:52:34.765Z,447.00
2023-06-19T05:53:34.844Z,450.00
2023-06-19T05:54:34.957Z,426.00
2023-06-19T05:55:35.068Z,454.00
2023-06-19T05:56:35.128Z,452.00
2023-06-19T05:57:35.289Z,446.00
2023-06-19T05:58:35.298Z,440.00
2023-06-19T05:59:35.455Z,439.00
2023-06-19T06:00:35.609Z,446.00
2023-06-19T06:01:35.574Z,448.00
2023-06-19T06:02:35.714Z,445.00
2023-06-19T06:03:35.792Z,445.00
2023-06-19T06:04:36.020Z,445.00
2023-06-19T06:05:35.960Z,443.00
2023-06-19T06:06:36.034Z,449.00
2023-06-19T06:07:36.558Z,449.00
2023-06-19T06:08:36.165Z,450.00
2023-06-19T06:09:36.258Z,451.00
2023-06-19T06:10:36.377Z,453.00
2023-06-19T06:11:36.530Z,454.00
2023-06-19T06:12:36.939Z,460.00
2023-06-19T06:13:36.799Z,462.00
2023-06-19T06:14:37.449Z,464.00
2023-06-19T06:15:36.909Z,459.00
2023-06-19T06:16:37.032Z,460.00
2023-06-19T06:17:37.113Z,470.00
2023-06-19T06:18:37.176Z,467.00
2023-06-19T06:19:37.360Z,460.00
2023-06-19T06:20:37.395Z,473.00
2023-06-19T06:21:37.516Z,469.00
2023-06-19T06:22:37.698Z,471.00
2023-06-19T06:23:37.778Z,471.00
2023-06-19T06:24:37.921Z,467.00
2023-06-19T06:25:37.982Z,462.00
2023-06-19T06:26:38.986Z,460.00
2023-06-19T06:27:38.132Z,453.00
2023-06-19T06:28:38.189Z,455.00
2023-06-19T06:29:39.331Z,457.00
2023-06-19T06:30:38.441Z,459.00
2023-06-19T06:31:38.509Z,457.00
2023-06-19T06:32:38.597Z,459.00
2023-06-19T06:33:38.683Z,456.00
2023-06-19T06:34:38.899Z,450.00
2023-06-19T06:35:39.086Z,436.00
2023-06-19T06:36:46.389Z,451.00
2023-06-19T06:37:40.286Z,456.00
2023-06-19T06:38:39.323Z,459.00
2023-06-19T06:39:39.345Z,462.00
2023-06-19T06:40:39.456Z,464.00
2023-06-19T06:41:39.420Z,464.00
2023-06-19T06:42:39.450Z,462.00
2023-06-19T06:43:39.481Z,462.00
2023-06-19T06:44:39.523Z,454.00
2023-06-19T06:45:39.660Z,462.00
2023-06-19T06:46:39.592Z,457.00
2023-06-19T06:47:39.692Z,452.00
2023-06-19T06:48:39.760Z,457.00
2023-06-19T06:49:39.852Z,452.00
2023-06-19T06:50:39.933Z,455.00
2023-06-19T06:51:40.017Z,451.00
2023-06-19T06:52:40.086Z,450.00
2023-06-19T06:53:40.959Z,451.00
2023-06-19T06:54:40.320Z,451.00
2023-06-19T06:55:40.343Z,454.00
2023-06-19T06:56:40.421Z,452.00
2023-06-19T06:57:40.477Z,452.00
2023-06-19T06:58:40.551Z,451.00
2023-06-19T06:59:40.594Z,452.00
2023-06-19T07:00:40.664Z,452.00
2023-06-19T07:01:40.713Z,455.00
2023-06-19T07:02:40.899Z,447.00
2023-06-19T07:03:40.886Z,440.00
2023-06-19T07:04:40.854Z,443.00
2023-06-19T07:05:40.914Z,439.00
2023-06-19T07:06:40.951Z,446.00
2023-06-19T07:07:41.028Z,443.00
2023-06-19T07:08:41.065Z,448.00
2023-06-19T07:09:41.182Z,447.00
2023-06-19T07:10:41.147Z,444.00
2023-06-19T07:11:41.207Z,445.00
2023-06-19T07:12:41.264Z,450.00
2023-06-19T07:13:41.379Z,446.00
2023-06-19T07:14:41.383Z,442.00
2023-06-19T07:15:41.435Z,455.00
2023-06-19T07:16:41.522Z,454.00
2023-06-19T07:17:41.671Z,457.00
2023-06-19T07:18:41.581Z,452.00
2023-06-19T07:19:41.612Z,453.00
2023-06-19T07:20:41.676Z,451.00
2023-06-19T07:21:41.760Z,451.00
2023-06-19T07:22:41.829Z,457.00
2023-06-19T07:23:42.480Z,459.00
2023-06-19T07:24:42.061Z,445.00
2023-06-19T07:25:41.989Z,449.00
2023-06-19T07:26:42.027Z,450.00
2023-06-19T07:27:42.108Z,450.00
2023-06-19T07:28:42.186Z,450.00
2023-06-19T07:29:42.170Z,451.00
2023-06-19T07:30:42.184Z,455.00
2023-06-19T07:31:42.198Z,452.00
2023-06-19T07:32:42.260Z,455.00
2023-06-19T07:33:42.234Z,443.00
2023-06-19T07:34:42.273Z,441.00
2023-06-19T07:35:42.343Z,440.00
2023-06-19T07:36:42.310Z,459.00
2023-06-19T07:37:42.381Z,457.00
2023-06-19T07:38:42.508Z,454.00
2023-06-19T07:39:42.495Z,455.00
2023-06-19T07:40:42.571Z,448.00
2023-06-19T07:41:42.582Z,451.00
2023-06-19T07:42:44.583Z,452.00
2023-06-19T07:43:42.737Z,448.00
2023-06-19T07:44:42.755Z,441.00
2023-06-19T07:45:42.839Z,452.00
2023-06-19T07:46:42.865Z,452.00
2023-06-19T07:47:42.960Z,454.00
2023-06-19T07:48:42.949Z,454.00
2023-06-19T07:49:43.120Z,453.00
2023-06-19T07:50:43.049Z,451.00
2023-06-19T07:51:43.142Z,451.00
2023-06-19T07:52:43.184Z,452.00
2023-06-19T07:53:43.224Z,453.00
2023-06-19T07:54:43.361Z,457.00
2023-06-19T07:55:43.234Z,457.00
2023-06-19T07:56:43.261Z,457.00
2023-06-19T07:57:43.301Z,454.00
2023-06-19T07:58:43.311Z,450.00
2023-06-19T07:59:43.474Z,452.00
2023-06-19T08:00:43.341Z,448.00
2023-06-19T08:01:43.378Z,447.00
2023-06-19T08:02:43.459Z,447.00
2023-06-19T08:03:43.446Z,447.00
2023-06-19T08:04:43.447Z,446.00
2023-06-19T08:05:43.438Z,447.00
2023-06-19T08:06:43.467Z,449.00
2023-06-19T08:07:43.485Z,448.00
2023-06-19T08:08:43.493Z,446.00
2023-06-19T08:09:43.507Z,447.00
2023-06-19T08:10:43.550Z,442.00
2023-06-19T08:11:43.554Z,444.00
2023-06-19T08:12:43.999Z,444.00
2023-06-19T08:13:43.556Z,444.00
2023-06-19T08:14:43.677Z,446.00
2023-06-19T08:15:44.455Z,444.00
2023-06-19T08:16:43.662Z,445.00
2023-06-19T08:17:43.672Z,444.00
2023-06-19T08:18:43.679Z,439.00
2023-06-19T08:19:43.614Z,442.00
2023-06-19T08:20:43.611Z,444.00
2023-06-19T08:21:43.582Z,441.00
2023-06-19T08:22:43.570Z,441.00
2023-06-19T08:23:43.547Z,439.00
2023-06-19T08:24:43.568Z,441.00
2023-06-19T08:25:43.529Z,444.00
2023-06-19T08:26:43.551Z,448.00
2023-06-19T08:27:43.472Z,447.00
2023-06-19T08:28:43.450Z,441.00
2023-06-19T08:29:43.444Z,439.00
2023-06-19T08:30:43.441Z,436.00
2023-06-19T08:31:43.466Z,438.00
2023-06-19T08:32:43.530Z,440.00
2023-06-19T08:33:44.423Z,443.00
2023-06-19T08:34:43.589Z,446.00
2023-06-19T08:35:43.548Z,447.00
2023-06-19T08:36:44.508Z,447.00
2023-06-19T08:37:43.595Z,447.00
2023-06-19T08:38:44.418Z,448.00
2023-06-19T08:39:43.636Z,447.00
2023-06-19T08:40:43.658Z,445.00
2023-06-19T08:41:43.759Z,446.00
2023-06-19T08:42:43.710Z,440.00
2023-06-19T08:43:43.712Z,443.00
2023-06-19T08:44:43.719Z,449.00
2023-06-19T08:45:43.784Z,446.00
2023-06-19T08:46:43.783Z,440.00
2023-06-19T08:47:43.790Z,440.00
2023-06-19T08:48:43.786Z,439.00
2023-06-19T08:49:43.817Z,438.00
2023-06-19T08:50:44.770Z,440.00
2023-06-19T08:51:43.754Z,437.00
2023-06-19T08:52:43.725Z,437.00
2023-06-19T08:53:43.710Z,438.00
2023-06-19T08:54:43.684Z,429.00
2023-06-19T08:55:44.015Z,433.00
2023-06-19T08:56:43.637Z,430.00
2023-06-19T08:57:43.615Z,430.00
2023-06-19T08:58:43.562Z,431.00
2023-06-19T08:59:43.564Z,430.00
2023-06-19T09:00:43.573Z,431.00
2023-06-19T09:01:43.570Z,435.00
2023-06-19T09:02:43.675Z,435.00
2023-06-19T09:03:43.676Z,434.00
2023-06-19T09:04:43.613Z,436.00
2023-06-19T09:05:46.772Z,436.00
2023-06-19T09:06:43.652Z,434.00
2023-06-19T09:07:43.538Z,432.00
2023-06-19T09:08:43.491Z,433.00
2023-06-19T09:09:43.449Z,434.00
2023-06-19T09:10:43.401Z,437.00
2023-06-19T09:11:43.351Z,438.00
2023-06-19T09:12:43.387Z,435.00
2023-06-19T09:13:43.269Z,434.00
2023-06-19T09:14:43.224Z,435.00
2023-06-19T09:15:43.172Z,431.00
2023-06-19T09:16:43.140Z,436.00
2023-06-19T09:17:43.150Z,436.00
2023-06-19T09:18:43.059Z,436.00
2023-06-19T09:19:43.004Z,437.00
2023-06-19T09:20:43.026Z,433.00
2023-06-19T09:21:44.021Z,431.00
2023-06-19T09:22:42.859Z,433.00
2023-06-19T09:23:42.822Z,430.00
2023-06-19T09:24:42.916Z,428.00
2023-06-19T09:25:42.920Z,427.00
2023-06-19T09:26:42.726Z,422.00
2023-06-19T09:27:42.757Z,431.00
2023-06-19T09:28:42.802Z,434.00
2023-06-19T09:29:42.827Z,432.00
2023-06-19T09:30:42.805Z,432.00
2023-06-19T09:31:42.812Z,431.00
2023-06-19T09:32:42.880Z,433.00
2023-06-19T09:33:42.861Z,432.00
2023-06-19T09:34:42.726Z,433.00
2023-06-19T09:35:42.690Z,433.00
2023-06-19T09:36:42.668Z,430.00
2023-06-19T09:37:42.677Z,422.00
2023-06-19T09:38:42.636Z,427.00
2023-06-19T09:39:42.596Z,419.00
2023-06-19T09:40:42.552Z,427.00
2023-06-19T09:41:42.677Z,427.00
2023-06-19T09:42:42.491Z,436.00
2023-06-19T09:43:42.469Z,429.00
2023-06-19T09:44:46.103Z,427.00
2023-06-19T09:45:43.045Z,428.00
2023-06-19T09:46:42.331Z,430.00
2023-06-19T09:47:42.324Z,437.00
2023-06-19T09:48:42.178Z,435.00
2023-06-19T09:49:42.109Z,434.00
2023-06-19T09:50:42.043Z,430.00
2023-06-19T09:51:41.974Z,431.00
2023-06-19T09:52:41.909Z,430.00
2023-06-19T09:53:41.890Z,433.00
2023-06-19T09:54:41.770Z,430.00
2023-06-19T09:55:41.722Z,428.00
2023-06-19T09:56:41.661Z,433.00
2023-06-19T09:57:41.623Z,434.00
2023-06-19T09:58:41.535Z,434.00
2023-06-19T09:59:41.502Z,433.00
2023-06-19T10:00:41.417Z,436.00
2023-06-19T10:01:41.339Z,434.00
2023-06-19T10:02:41.354Z,436.00
2023-06-19T10:03:41.300Z,435.00
2023-06-19T10:04:41.159Z,435.00
2023-06-19T10:05:41.095Z,437.00
2023-06-19T10:06:41.030Z,435.00
2023-06-19T10:07:40.983Z,433.00
2023-06-19T10:08:40.922Z,431.00
2023-06-19T10:09:40.988Z,433.00
2023-06-19T10:10:40.762Z,436.00
2023-06-19T10:11:40.686Z,435.00
2023-06-19T10:12:40.616Z,434.00
2023-06-19T10:13:40.585Z,435.00
2023-06-19T10:14:40.480Z,435.00
2023-06-19T10:15:40.485Z,438.00
2023-06-19T10:16:40.405Z,433.00
2023-06-19T10:17:40.277Z,435.00
2023-06-19T10:18:40.157Z,436.00
2023-06-19T10:19:40.078Z,433.00
2023-06-19T10:20:46.371Z,434.00
2023-06-19T10:21:40.994Z,427.00
2023-06-19T10:22:39.884Z,428.00
2023-06-19T10:23:39.882Z,432.00
2023-06-19T10:24:39.843Z,432.00
2023-06-19T10:25:39.683Z,430.00
2023-06-19T10:26:39.591Z,431.00
2023-06-19T10:27:39.536Z,433.00
2023-06-19T10:28:39.437Z,435.00
2023-06-19T10:29:39.424Z,432.00
2023-06-19T10:30:39.324Z,433.00
2023-06-19T10:31:39.188Z,436.00
2023-06-19T10:32:39.125Z,435.00
2023-06-19T10:33:39.016Z,435.00
2023-06-19T10:34:39.573Z,435.00
2023-06-19T10:35:38.842Z,437.00
2023-06-19T10:36:38.758Z,434.00
2023-06-19T10:37:38.753Z,435.00
2023-06-19T10:38:38.634Z,434.00
2023-06-19T10:39:38.574Z,436.00
2023-06-19T10:40:38.553Z,435.00
2023-06-19T10:41:38.524Z,433.00
2023-06-19T10:42:38.484Z,431.00
2023-06-19T10:43:38.981Z,429.00
2023-06-19T10:44:38.442Z,431.00
2023-06-19T10:45:38.453Z,433.00
2023-06-19T10:46:38.413Z,436.00
2023-06-19T10:47:38.353Z,434.00
2023-06-19T10:48:38.445Z,438.00
2023-06-19T10:49:38.314Z,441.00
2023-06-19T10:50:38.257Z,436.00
2023-06-19T10:51:38.219Z,436.00
2023-06-19T10:52:38.274Z,443.00
2023-06-19T10:53:38.146Z,435.00
2023-06-19T10:54:38.108Z,437.00
2023-06-19T10:55:38.057Z,437.00
2023-06-19T10:56:38.019Z,437.00
2023-06-19T10:57:38.008Z,440.00
2023-06-19T10:58:37.910Z,438.00
2023-06-19T10:59:37.850Z,437.00
2023-06-19T11:00:37.791Z,438.00
2023-06-19T11:01:37.819Z,437.00
2023-06-19T11:02:37.839Z,439.00
2023-06-19T11:03:37.712Z,442.00
2023-06-19T11:04:37.648Z,444.00
2023-06-19T11:05:37.621Z,438.00
2023-06-19T11:06:37.584Z,437.00
2023-06-19T11:07:37.525Z,435.00
2023-06-19T11:08:37.502Z,428.00
2023-06-19T11:09:37.471Z,449.00
2023-06-19T11:10:37.432Z,450.00
2023-06-19T11:11:37.385Z,443.00
2023-06-19T11:12:37.360Z,442.00
2023-06-19T11:13:37.323Z,430.00
2023-06-19T11:14:37.309Z,426.00
2023-06-19T11:15:37.280Z,427.00
2023-06-19T11:16:37.277Z,427.00
2023-06-19T11:17:37.215Z,423.00
2023-06-19T11:18:37.148Z,424.00
2023-06-19T11:19:37.113Z,425.00
2023-06-19T11:20:37.129Z,428.00
2023-06-19T11:21:37.025Z,427.00
2023-06-19T11:22:36.991Z,427.00
2023-06-19T11:23:37.048Z,427.00
2023-06-19T11:24:36.982Z,425.00
2023-06-19T11:25:36.839Z,423.00
2023-06-19T11:26:36.792Z,424.00
2023-06-19T11:27:36.858Z,424.00
2023-06-19T11:28:37.581Z,422.00
2023-06-19T11:29:36.661Z,422.00
2023-06-19T11:30:37.594Z,422.00
2023-06-19T11:31:36.493Z,424.00
2023-06-19T11:32:36.471Z,428.00
2023-06-19T11:33:36.329Z,432.00
2023-06-19T11:34:36.227Z,429.00
2023-06-19T11:35:36.145Z,425.00
2023-06-19T11:36:36.071Z,428.00
2023-06-19T11:37:36.009Z,424.00
2023-06-19T11:38:35.909Z,421.00
2023-06-19T11:39:35.832Z,428.00
2023-06-19T11:40:35.776Z,428.00
2023-06-19T11:41:35.755Z,429.00
2023-06-19T11:42:35.744Z,432.00
2023-06-19T11:43:35.691Z,429.00
2023-06-19T11:44:36.814Z,432.00
2023-06-19T11:45:35.584Z,431.00
2023-06-19T11:46:35.569Z,425.00
2023-06-19T11:47:35.511Z,427.00
2023-06-19T11:48:35.422Z,430.00
2023-06-19T11:49:35.353Z,429.00
2023-06-19T11:50:35.288Z,428.00
2023-06-19T11:51:35.149Z,428.00
2023-06-19T11:52:35.101Z,427.00
2023-06-19T11:53:35.011Z,428.00
2023-06-19T11:54:35.172Z,428.00
2023-06-19T11:55:36.188Z,430.00
2023-06-19T11:56:35.225Z,430.00
2023-06-19T11:57:35.130Z,428.00
2023-06-19T11:58:35.033Z,430.00
2023-06-19T11:59:34.936Z,435.00
2023-06-19T12:00:34.849Z,436.00
2023-06-19T12:01:34.726Z,437.00
2023-06-19T12:02:35.215Z,441.00
2023-06-19T12:03:34.636Z,436.00
2023-06-19T12:04:35.166Z,436.00
2023-06-19T12:05:34.428Z,437.00
2023-06-19T12:06:34.373Z,434.00
2023-06-19T12:07:34.331Z,436.00
2023-06-19T12:08:34.281Z,435.00
2023-06-19T12:09:34.242Z,439.00
2023-06-19T12:10:34.155Z,436.00
2023-06-19T12:11:34.107Z,430.00
2023-06-19T12:12:34.033Z,432.00
2023-06-19T12:13:33.973Z,434.00
2023-06-19T12:14:33.918Z,432.00
2023-06-19T12:15:35.424Z,430.00
2023-06-19T12:16:33.763Z,428.00
2023-06-19T12:17:33.646Z,435.00
2023-06-19T12:18:33.503Z,434.00
2023-06-19T12:19:33.436Z,432.00
2023-06-19T12:20:33.292Z,434.00
2023-06-19T12:21:38.637Z,435.00
2023-06-19T12:22:34.055Z,436.00
2023-06-19T12:23:32.942Z,432.00
2023-06-19T12:24:32.915Z,433.00
2023-06-19T12:25:32.752Z,432.00
2023-06-19T12:26:32.604Z,434.00
2023-06-19T12:27:32.639Z,432.00
2023-06-19T12:28:32.401Z,430.00
2023-06-19T12:29:32.298Z,428.00